Harwich, MA (02645)

6:51 PM EDT on July 04, 2015 (GMT -0400)
N2KNL / KB1VAJ Amateur Radio | | Change Station
CLOSE
Current Station
Personal Weather Station
Location: Harwich Weather, MA
Elevation: 36 ft
Nearby Weather Stations

Elev 36 ft 41.68 °N, 70.06 °W | Updated 5 seconds ago

Overcast
Overcast
65.9 °F
Feels Like 65.9 °F
N
2.9
Wind Variable Wind from NE
Gusts 3.5 mph

Today
High -- | Low -- °F
--% Chance of Precip.
Yesterday
High -- | Low -- °F
Precip. -- in
5:10 AM 8:18 PM
Waning Gibbous, 89% visible
Pressure 29.95 in
Visibility 10.0 miles
Clouds Few 12000 ft
Dew Point 55 °F
Humidity 67%
Rainfall 0.00 in
Snow Depth Not available.
UV 2 out of 12
Pollen 1.90 out of 12
Air Quality Not available.
Flu Activity Not available.
METAR KCQX 042152Z AUTO 04008KT 10SM FEW120 19/13 A2995 RMK AO2 SLP141 T01890128

More Conditions Fewer Conditions

Pressure 29.95 in
Visibility 10.0 miles
Clouds Few 12000 ft
Dew Point 55 °F
Humidity 67%
Rainfall 0.00 in
Snow Depth Not available.
UV 2 out of 12
Pollen 1.90 out of 12
Air Quality Not available.
Flu Activity Not available.
METAR KCQX 042152Z AUTO 04008KT 10SM FEW120 19/13 A2995 RMK AO2 SLP141 T01890128

More Conditions Fewer Conditions

10-Day Weather Forecast

×

Almanac

Astronomy

Jul. 04, 2015 Rise Set
Actual Time
Civil Twilight
Nautical Twilight
Astronomical Twilight
Moon
Length of Visible Light
Length of Day
Tomorrow will be .
, % of the Moon is Illuminated

Today's Extremes

State Highs State Lows

Community

WunderPhotos

Upload Photos

1,835,105 photos uploaded!

WunderBlogs® & News

Nearby

Air Quality

  Air Quality AQ Index Pollutant
Not available.

Snow Depth

Station Depth Elevation

Earthquake Activity

City Distance Mag. Time & Date
Minimum magnitude displayed is 2.5.

Coastal Water Temperatures

Place Temperature

Stations

Nearby Weather Stations

Station Location Temp. Windchill Dew Point Humidity Wind Precip. Elev Updated Type